Airfield :
LOGIN :

Register | Disclaimer

   EN    FR    IT 

 










Legend :    VFR   Marginal VFR   IFR   Intensive IFR   Very Intensive IFR
Visi :
Ceiling :
>= 8 km
>= 3000ft
5 to 8 km
1000 to 3000 ft
1500m to 5 km
500 to 1000 ft
800 to 1500m
200 to 500 ft
< 800m
< 200 ft
Symbols :   Thunderstorms  Fog  Heavy snow  Heavy precipitations  Wind > 20 kt
SIGMETs :     Misc.  Thunderstorms  Icing  Turbulence  Mountain Waves  Volcanic Ashes






- Airport Elevation : 407 ft


EGDM - MoD Boscombe Down Amesbury

CURRENT METAR :
  • 250520Z AUTO 36004KT 9999 // NCD 13/12 Q1016

EXPIRED METARs :
  • 250450Z AUTO 34003KT 9999 // NCD 14/13 Q1016
  • 250420Z AUTO 36004KT 9999 FG FEW001/// 14/13 Q1017
  • 250350Z AUTO 36002KT 0200 FG SCT001/// 13/12 Q1016
  • 250320Z AUTO 33005KT 9999 NCD 13/13 Q1016
  • 250250Z AUTO 33004KT 9999 NCD 13/13 Q1016
  • 250220Z AUTO 32004KT 9999 NCD 14/13 Q1017
  • 250150Z AUTO 01002KT 9999 BR NCD 14/12 Q1017
  • 250120Z AUTO 02002KT 9999 NCD 15/14 Q1017
  • 250050Z AUTO 05005KT 9999 NCD 15/14 Q1017
  • 250020Z AUTO 04003KT 9999 NCD 15/14 Q1017

Expired Forecast.



MET'MAP, your aeronautical weather chart ! - Copyright ORBIFLY December 2007 - Disclaimer

ORBIFLY MET'MAP TEAM :

Programming & Development : Alexandra Zaïnal
Original concept : Baudouin d'Aumeries
Technical & hardware support : Manuel Goepfert
Assistance : Marc-Olivier Méhu




SOURCES & CREDITS :

   NOAA